Time;durP1;ratioP1;P1;durP2;ratioP2;P2;SDS_P1;SDS_P2;PMS_P1;PMS_P2;Temp;Humidity;BMP_temperature;BMP_pressure;BME280_temperature;BME280_humidity;BME280_pressure;Samples;Min_cycle;Max_cycle;Signal;HPM_P1;HPM_P2
2022/06/06 00:02:59;;;;;;;5.35;2.50;;;;;;;21.30;47.20;100477.44;18562260;32;20115;-66
2022/06/06 00:13:04;;;;;;;4.78;2.37;;;;;;;20.98;48.11;100500.12;18561870;32;20092;-66
2022/06/06 00:23:07;;;;;;;6.90;2.50;;;;;;;20.87;48.17;100469.62;18562498;31;20092;-66
2022/06/06 00:43:33;;;;;;;5.30;2.10;;;;;;;20.61;48.21;100450.37;18560144;32;20100;-66
2022/06/06 00:53:41;;;;;;;4.60;2.40;;;;;;;20.68;47.95;100458.03;18560035;32;20100;-66
2022/06/06 01:03:46;;;;;;;4.93;2.22;;;;;;;20.79;47.35;100480.50;18559599;32;20490;-66
2022/06/06 01:13:52;;;;;;;4.93;2.05;;;;;;;20.93;46.75;100485.25;18559134;32;20096;-66
2022/06/06 01:24:08;;;;;;;5.07;2.45;;;;;;;20.82;48.42;100500.78;18558800;31;20133;-66
2022/06/06 01:34:14;;;;;;;6.55;2.60;;;;;;;20.05;52.74;100537.47;18559014;32;20084;-66
2022/06/06 01:44:23;;;;;;;4.82;2.55;;;;;;;20.29;54.21;100558.59;18556889;31;20089;-66
2022/06/06 01:54:28;;;;;;;4.40;2.37;;;;;;;20.11;53.12;100586.72;18566607;32;20108;-67
2022/06/06 02:04:31;;;;;;;6.78;2.83;;;;;;;19.55;57.62;100602.03;18565664;32;20096;-66
2022/06/06 02:14:36;;;;;;;4.60;2.30;;;;;;;20.06;54.11;100610.75;18565327;32;20096;-66
2022/06/06 02:24:39;;;;;;;4.10;2.30;;;;;;;20.34;51.46;100630.00;18565188;32;20103;-67
2022/06/06 02:34:44;;;;;;;5.75;2.60;;;;;;;20.38;53.53;100635.12;18564713;32;20091;-67
2022/06/06 02:44:48;;;;;;;5.80;2.53;;;;;;;21.43;48.71;100597.19;18564237;32;20190;-67
2022/06/06 02:54:52;;;;;;;5.03;2.55;;;;;;;20.54;51.24;100588.59;18564095;32;20084;-67
2022/06/06 03:04:55;;;;;;;4.70;2.65;;;;;;;20.33;52.55;100594.69;18563044;32;20119;-67
2022/06/06 03:15:19;;;;;;;5.87;2.80;;;;;;;20.43;50.83;100607.56;18563615;32;20530;-66
2022/06/06 03:25:29;;;;;;;6.80;2.53;;;;;;;19.60;55.02;100618.62;18563386;32;20103;-67
2022/06/06 03:35:39;;;;;;;6.30;2.78;;;;;;;19.98;55.49;100628.72;18563098;32;20157;-67
2022/06/06 03:45:50;;;;;;;5.05;2.58;;;;;;;19.46;57.93;100627.06;18562576;31;20159;-67
2022/06/06 03:56:14;;;;;;;4.95;2.42;;;;;;;20.52;53.43;100596.59;18562534;32;20092;-67
2022/06/06 04:06:18;;;;;;;6.53;3.05;;;;;;;20.95;50.53;100571.88;18562095;31;20099;-67
2022/06/06 04:16:32;;;;;;;7.90;3.22;;;;;;;20.35;54.28;100576.09;18561809;32;20107;-67
2022/06/06 04:26:43;;;;;;;6.60;3.05;;;;;;;20.68;54.14;100569.41;18561623;32;20104;-67
2022/06/06 04:36:54;;;;;;;6.13;2.70;;;;;;;21.53;51.17;100567.56;18557194;32;109073;-67
2022/06/06 04:47:00;;;;;;;6.50;3.28;;;;;;;21.88;49.77;100568.63;18561729;32;20360;-67
2022/06/06 04:57:06;;;;;;;6.18;3.05;;;;;;;21.84;51.00;100574.16;18560313;31;20122;-67
2022/06/06 05:07:26;;;;;;;5.90;3.10;;;;;;;21.78;50.35;100579.75;18559656;32;20091;-67
2022/06/06 05:17:43;;;;;;;7.12;3.10;;;;;;;21.63;53.71;100575.03;18559117;32;20097;-67
2022/06/06 05:28:02;;;;;;;5.50;2.83;;;;;;;21.25;54.38;100588.25;18566089;32;20395;-67
2022/06/06 05:38:17;;;;;;;6.75;3.08;;;;;;;20.87;56.22;100606.69;18566205;32;20080;-68
2022/06/06 05:48:33;;;;;;;6.50;3.15;;;;;;;21.63;54.93;100616.69;18566366;32;20092;-67
2022/06/06 05:58:48;;;;;;;5.87;3.33;;;;;;;22.77;52.00;100614.94;18565805;32;20107;-67
2022/06/06 06:09:06;;;;;;;5.93;3.33;;;;;;;22.31;52.27;100618.91;18565631;32;20380;-67
2022/06/06 06:19:13;;;;;;;7.18;3.10;;;;;;;22.48;50.64;100627.84;18565077;32;20122;-68
2022/06/06 06:29:17;;;;;;;6.18;3.10;;;;;;;22.77;53.07;100643.34;18564442;32;20451;-67
2022/06/06 06:39:40;;;;;;;6.65;3.00;;;;;;;22.92;51.65;100652.34;18563476;32;20101;-67
2022/06/06 06:49:47;;;;;;;6.00;2.95;;;;;;;22.90;48.36;100654.25;18564253;32;20108;-67
2022/06/06 07:00:05;;;;;;;5.75;2.70;;;;;;;22.89;46.81;100645.38;18565074;32;20480;-67
2022/06/06 07:10:15;;;;;;;5.78;2.90;;;;;;;24.16;43.48;100643.25;18563987;32;20152;-67
2022/06/06 07:20:21;;;;;;;7.03;3.30;;;;;;;23.40;45.49;100642.81;18563533;32;20088;-67
2022/06/06 07:30:27;;;;;;;5.03;2.47;;;;;;;23.40;46.53;100645.47;18563258;32;20383;-67
2022/06/06 07:40:39;;;;;;;5.82;2.70;;;;;;;23.51;44.45;100657.37;18562432;31;20134;-67
2022/06/06 07:50:47;;;;;;;6.50;3.30;;;;;;;24.25;45.20;100633.91;18560762;32;20122;-67
2022/06/06 08:00:57;;;;;;;5.57;3.00;;;;;;;24.32;43.28;100631.75;18562810;32;20099;-68
2022/06/06 08:11:05;;;;;;;5.97;2.73;;;;;;;24.46;43.75;100652.31;18562145;32;20366;-68
2022/06/06 08:21:16;;;;;;;6.30;2.50;;;;;;;24.35;42.15;100647.56;18561728;32;20073;-68
2022/06/06 08:31:19;;;;;;;4.50;2.30;;;;;;;24.73;41.30;100646.31;18561347;32;20439;-67
2022/06/06 08:41:55;;;;;;;5.30;2.53;;;;;;;25.22;40.20;100650.59;18560521;32;20726;-68
2022/06/06 08:52:12;;;;;;;4.22;2.22;;;;;;;25.13;40.55;100644.00;18294002;32;20147;-67
2022/06/06 09:03:04;;;;;;;4.82;2.22;;;;;;;25.08;39.38;100641.59;18279039;32;20129;-67
2022/06/06 09:13:37;;;;;;;4.90;2.47;;;;;;;25.65;40.33;100638.28;17798595;33;20199;-67
2022/06/06 09:24:02;;;;;;;5.15;2.55;;;;;;;25.86;39.61;100628.06;17912431;32;20118;-68
2022/06/06 09:34:32;;;;;;;3.85;2.30;;;;;;;25.78;40.38;100617.81;18102875;32;20114;-67
2022/06/06 09:44:57;;;;;;;4.82;2.30;;;;;;;26.78;38.47;100600.75;18363339;32;20111;-68
2022/06/06 10:06:17;;;;;;;5.50;2.35;;;;;;;28.60;34.60;100586.13;18554640;32;20110;-68
2022/06/06 10:16:42;;;;;;;4.37;1.90;;;;;;;28.74;32.36;100584.22;18286160;32;20402;-68
2022/06/06 10:26:58;;;;;;;3.12;1.73;;;;;;;28.42;33.22;100571.41;18297627;32;20121;-68
2022/06/06 10:37:24;;;;;;;3.00;1.70;;;;;;;28.65;31.90;100577.72;18109308;32;20141;-68
2022/06/06 10:47:41;;;;;;;2.60;1.90;;;;;;;29.08;29.52;100563.72;18182289;32;20138;-68
2022/06/06 10:58:17;;;;;;;3.92;1.77;;;;;;;29.31;31.79;100562.84;18550673;32;20356;-68
2022/06/06 11:08:42;;;;;;;3.05;1.80;;;;;;;29.23;32.07;100543.81;18564820;32;20096;-68
2022/06/06 11:19:14;;;;;;;2.72;1.67;;;;;;;29.30;29.23;100539.63;18282889;32;20148;-68
2022/06/06 11:29:43;;;;;;;3.90;1.60;;;;;;;29.43;28.91;100523.38;18296176;32;20137;-68
2022/06/06 11:40:17;;;;;;;3.97;1.98;;;;;;;29.81;30.43;100511.37;18295858;32;20161;-68
2022/06/06 11:50:59;;;;;;;3.72;1.65;;;;;;;29.94;27.58;100508.53;18366468;32;20100;-68
2022/06/06 12:01:32;;;;;;;2.67;1.60;;;;;;;31.21;28.59;100513.09;18562816;32;20400;-68
2022/06/06 12:12:03;;;;;;;3.40;1.70;;;;;;;31.17;27.06;100497.34;18552001;31;20113;-68
2022/06/06 12:22:53;;;;;;;2.05;1.55;;;;;;;30.48;22.71;100484.34;18562853;32;20088;-68
2022/06/06 12:33:02;;;;;;;2.75;1.83;;;;;;;30.45;28.18;100474.66;18293491;32;20123;-68
2022/06/06 12:43:11;;;;;;;2.40;1.65;;;;;;;32.17;26.99;100457.81;18293285;32;20113;-68
2022/06/06 12:53:45;;;;;;;2.80;1.30;;;;;;;31.73;26.94;100455.50;18293099;32;20180;-68
2022/06/06 13:04:03;;;;;;;2.37;1.60;;;;;;;32.37;23.55;100455.13;18527383;32;20096;-68
2022/06/06 13:14:20;;;;;;;2.53;1.80;;;;;;;31.76;23.39;100438.16;18419365;32;20149;-68
2022/06/06 13:24:41;;;;;;;2.80;1.80;;;;;;;31.77;25.50;100432.63;18432266;32;20096;-68
2022/06/06 13:34:56;;;;;;;3.80;1.87;;;;;;;31.73;25.17;100425.84;18557915;31;20089;-68
2022/06/06 13:45:11;;;;;;;3.22;1.73;;;;;;;31.70;24.37;100418.00;18560647;32;20101;-68
2022/06/06 13:55:29;;;;;;;3.67;1.92;;;;;;;31.08;27.37;100421.69;18565866;32;20084;-68
2022/06/06 14:05:57;;;;;;;4.18;1.80;;;;;;;31.27;29.32;100412.84;18565128;31;20103;-68
2022/06/06 14:16:17;;;;;;;3.92;2.00;;;;;;;31.02;28.20;100406.09;18565257;32;20089;-68
2022/06/06 14:26:22;;;;;;;3.62;1.98;;;;;;;29.62;30.16;100407.97;18564697;32;20436;-68
2022/06/06 14:36:27;;;;;;;3.83;2.30;;;;;;;30.27;28.21;100403.56;18565010;32;20443;-68
2022/06/06 14:46:45;;;;;;;3.87;2.30;;;;;;;30.23;31.53;100400.28;18565129;32;20118;-68
2022/06/06 14:56:51;;;;;;;4.37;2.20;;;;;;;30.49;30.94;100402.56;18563579;32;20081;-68
2022/06/06 15:06:58;;;;;;;4.47;2.55;;;;;;;30.03;29.98;100401.97;18562033;32;20105;-68
2022/06/06 15:17:05;;;;;;;4.87;2.28;;;;;;;30.20;29.71;100394.28;18562554;32;20092;-68
2022/06/06 15:27:28;;;;;;;4.22;2.20;;;;;;;29.98;30.41;100388.91;18563026;32;20405;-68
2022/06/06 15:37:40;;;;;;;4.70;2.20;;;;;;;30.63;30.10;100387.00;18562672;32;20136;-68
2022/06/06 15:47:52;;;;;;;4.70;2.08;;;;;;;29.31;29.92;100377.38;18562208;32;20437;-68
2022/06/06 15:58:15;;;;;;;4.22;2.20;;;;;;;29.69;29.67;100381.44;18562626;32;20088;-68
2022/06/06 16:08:43;;;;;;;4.05;2.00;;;;;;;30.09;29.09;100376.41;18562058;32;20107;-68
2022/06/06 16:18:48;;;;;;;3.55;2.00;;;;;;;29.52;30.79;100377.47;18561996;32;20696;-68
2022/06/06 16:28:55;;;;;;;4.65;2.12;;;;;;;29.63;31.00;100381.97;18561463;32;20107;-67
2022/06/06 16:39:24;;;;;;;4.97;2.40;;;;;;;29.26;30.31;100390.34;18561281;32;20488;-68
2022/06/06 16:49:35;;;;;;;4.32;2.20;;;;;;;29.11;30.93;100393.28;18560081;32;20376;-68
2022/06/06 16:59:46;;;;;;;4.50;2.40;;;;;;;29.53;31.19;100389.91;18560154;32;20088;-68
2022/06/06 17:09:57;;;;;;;4.50;2.30;;;;;;;29.47;31.80;100391.28;18559365;32;20140;-68
2022/06/06 17:20:16;;;;;;;5.28;2.72;;;;;;;28.89;33.99;100384.28;18562117;32;20120;-68
2022/06/06 17:30:29;;;;;;;3.70;1.90;;;;;;;28.81;34.81;100384.00;18566403;32;20103;-68
2022/06/06 17:40:39;;;;;;;5.18;2.37;;;;;;;28.66;37.90;100386.09;18566000;32;20096;-68
2022/06/06 17:50:50;;;;;;;4.53;2.15;;;;;;;28.20;39.87;100383.34;18566620;31;20416;-67
2022/06/06 18:01:17;;;;;;;3.72;1.90;;;;;;;28.08;41.94;100384.25;18565628;32;20445;-67
2022/06/06 18:11:27;;;;;;;4.18;1.90;;;;;;;27.34;44.33;100391.47;18565634;32;20103;-67
2022/06/06 18:21:41;;;;;;;2.65;1.80;;;;;;;26.80;46.12;100388.16;18565631;32;20088;-67
2022/06/06 18:31:48;;;;;;;5.20;2.67;;;;;;;26.77;45.90;100395.53;18563534;32;20181;-67
2022/06/06 18:41:58;;;;;;;3.70;1.90;;;;;;;25.81;48.38;100402.87;18564633;32;20120;-67
2022/06/06 18:52:06;;;;;;;4.90;2.10;;;;;;;25.31;50.60;100398.91;18564696;32;20161;-67
2022/06/06 19:02:23;;;;;;;4.72;2.37;;;;;;;24.91;51.96;100404.13;18564414;32;20317;-67
2022/06/06 19:12:32;;;;;;;4.40;2.25;;;;;;;24.38;53.56;100415.31;18564187;32;20080;-67
2022/06/06 19:22:36;;;;;;;5.00;2.35;;;;;;;23.98;53.82;100421.19;18562100;32;20100;-67
2022/06/06 19:32:41;;;;;;;4.68;2.40;;;;;;;23.08;57.47;100429.69;18563056;32;20107;-67
2022/06/06 19:42:47;;;;;;;3.95;2.28;;;;;;;22.95;57.77;100441.91;18505933;32;20110;-67
2022/06/06 19:52:52;;;;;;;3.60;1.90;;;;;;;22.04;61.26;100435.88;18501949;32;20162;-67
2022/06/06 20:02:59;;;;;;;3.75;2.15;;;;;;;22.45;59.05;100428.50;18562293;31;20089;-67
2022/06/06 20:13:26;;;;;;;5.90;2.90;;;;;;;21.80;61.55;100437.94;18555231;32;20108;-66
2022/06/06 20:23:30;;;;;;;3.67;2.03;;;;;;;21.44;63.87;100436.09;18497270;32;20092;-67
2022/06/06 20:33:40;;;;;;;5.70;2.90;;;;;;;21.39;63.25;100435.41;18494866;32;20120;-67
2022/06/06 20:43:45;;;;;;;5.23;2.40;;;;;;;20.78;65.81;100433.69;18495960;32;20096;-67
2022/06/06 20:53:54;;;;;;;5.70;2.60;;;;;;;20.73;65.76;100425.09;18493286;32;20180;-67
2022/06/06 21:03:58;;;;;;;3.95;2.33;;;;;;;20.43;66.97;100427.28;18495943;32;20115;-67
2022/06/06 21:14:04;;;;;;;4.68;2.22;;;;;;;20.62;65.69;100425.56;18519841;32;20104;-67
2022/06/06 21:24:10;;;;;;;4.55;2.35;;;;;;;20.09;67.78;100424.28;18559147;32;20364;-67
2022/06/06 21:34:15;;;;;;;4.22;2.33;;;;;;;19.27;69.72;100436.28;18559285;32;20102;-67
2022/06/06 21:44:18;;;;;;;4.68;2.40;;;;;;;19.62;68.28;100431.41;18557419;32;20089;-67
2022/06/06 21:54:24;;;;;;;3.40;2.10;;;;;;;19.66;68.04;100421.56;18557027;32;20716;-67
2022/06/06 22:04:29;;;;;;;5.60;2.70;;;;;;;18.96;70.44;100429.47;18559298;32;20104;-67
2022/06/06 22:14:36;;;;;;;4.03;2.20;;;;;;;19.17;69.69;100419.03;18565583;32;20132;-67
2022/06/06 22:24:39;;;;;;;6.47;2.65;;;;;;;19.72;67.26;100418.66;18512894;32;20088;-67
2022/06/06 22:34:44;;;;;;;5.28;2.65;;;;;;;18.88;70.28;100435.06;18500264;32;20122;-67
2022/06/06 22:44:47;;;;;;;5.62;2.62;;;;;;;18.63;71.52;100425.34;18498335;32;20096;-67
2022/06/06 22:54:51;;;;;;;7.32;3.08;;;;;;;19.17;68.85;100422.56;18499238;32;20448;-67
2022/06/06 23:04:55;;;;;;;7.65;3.17;;;;;;;18.81;69.96;100422.97;18499005;32;20110;-67
2022/06/06 23:14:59;;;;;;;5.50;2.85;;;;;;;18.71;69.80;100415.38;18497874;32;20399;-68
2022/06/06 23:25:03;;;;;;;7.95;3.10;;;;;;;18.64;70.25;100405.94;18499583;32;20139;-67
2022/06/06 23:35:08;;;;;;;5.90;2.37;;;;;;;18.71;69.87;100418.03;18498212;32;20107;-67
2022/06/06 23:55:34;;;;;;;5.90;2.75;;;;;;;17.66;73.63;100405.66;18497821;32;20160;-67
